Time;durP1;ratioP1;P1;durP2;ratioP2;P2;SDS_P1;SDS_P2;PMS_P1;PMS_P2;Temp;Humidity;BMP_temperature;BMP_pressure;BME280_temperature;BME280_humidity;BME280_pressure;Samples;Min_cycle;Max_cycle;Signal;HPM_P1;HPM_P2
2021/01/28 00:00:15;;;;;;;9.35;4.97;;;21.30;59.80;;;;;;4818676;29;100884;-88
2021/01/28 00:02:53;;;;;;;8.57;4.80;;;21.30;59.70;;;;;;4842057;29;101271;-83
2021/01/28 00:05:43;;;;;;;8.88;4.93;;;21.30;59.70;;;;;;4821621;29;102287;-87
2021/01/28 00:08:42;;;;;;;18.42;12.48;;;21.30;59.60;;;;;;4855218;29;101032;-85
2021/01/28 00:11:35;;;;;;;20.55;13.32;;;20.90;56.40;;;;;;4847628;29;100996;-87
2021/01/28 00:17:31;;;;;;;14.82;10.50;;;20.70;57.70;;;;;;4861814;29;100879;-83
2021/01/28 00:20:42;;;;;;;16.15;10.30;;;20.90;57.80;;;;;;4846191;29;101068;-83
2021/01/28 00:23:27;;;;;;;17.40;10.15;;;21.00;57.80;;;;;;4842941;29;100316;-84
2021/01/28 00:26:22;;;;;;;12.32;9.05;;;21.00;57.70;;;;;;4825471;29;100582;-86
2021/01/28 00:29:02;;;;;;;13.50;8.88;;;21.10;57.60;;;;;;4831402;29;101036;-87
2021/01/28 00:32:35;;;;;;;16.38;9.57;;;21.20;57.60;;;;;;4839544;29;101062;-86
2021/01/28 00:35:25;;;;;;;13.75;8.18;;;21.30;57.60;;;;;;4859125;29;102028;-85
2021/01/28 00:37:51;;;;;;;15.70;10.45;;;21.30;57.60;;;;;;4842491;29;101413;-84
2021/01/28 00:47:28;;;;;;;13.95;9.45;;;20.80;57.60;;;;;;4824387;29;101139;-87
2021/01/28 00:50:29;;;;;;;13.65;9.43;;;20.70;57.70;;;;;;4830084;29;100915;-89
2021/01/28 00:53:06;;;;;;;14.07;9.13;;;20.70;57.60;;;;;;4822659;29;103151;-87
2021/01/28 00:56:25;;;;;;;14.70;9.18;;;20.70;57.60;;;;;;4836309;29;101856;-89
2021/01/28 00:58:51;;;;;;;13.10;9.82;;;20.70;57.50;;;;;;4809330;29;101515;-83
2021/01/28 01:01:34;;;;;;;15.48;9.20;;;20.70;57.30;;;;;;4836437;29;101231;-88
2021/01/28 01:03:59;;;;;;;15.73;8.63;;;20.70;57.50;;;;;;4843658;29;103045;-84
2021/01/28 01:06:25;;;;;;;14.68;8.93;;;20.70;57.60;;;;;;4834451;28;102778;-85
2021/01/28 01:08:57;;;;;;;13.75;8.85;;;20.70;57.60;;;;;;4824495;29;101358;-83
2021/01/28 01:11:25;;;;;;;12.85;8.98;;;20.70;57.60;;;;;;4816714;29;101263;-83
2021/01/28 01:14:04;;;;;;;19.33;9.15;;;20.70;57.70;;;;;;4835247;29;100887;-84
2021/01/28 01:16:30;;;;;;;18.05;9.43;;;20.60;57.60;;;;;;4843156;28;100721;-83
2021/01/28 01:19:10;;;;;;;14.63;9.52;;;20.60;57.90;;;;;;4844885;29;101138;-86
2021/01/28 01:21:39;;;;;;;21.52;10.43;;;20.60;57.80;;;;;;4828080;29;100384;-87
2021/01/28 01:28:36;;;;;;;;;;;;;;;;;;;;;
2021/01/28 01:31:07;;;;;;;16.10;8.40;;;20.80;57.90;;;;;;4853338;29;117528;-86
2021/01/28 01:33:33;;;;;;;23.65;8.05;;;20.80;58.10;;;;;;4847922;29;100991;-85
2021/01/28 01:36:04;;;;;;;18.90;8.55;;;20.90;58.00;;;;;;4849079;29;103293;-86
2021/01/28 01:38:33;;;;;;;15.90;7.55;;;20.90;58.00;;;;;;4832184;29;101157;-88
2021/01/28 01:41:03;;;;;;;23.30;8.32;;;20.90;57.90;;;;;;4855180;29;101020;-88
2021/01/28 01:43:30;;;;;;;13.85;8.15;;;20.90;57.90;;;;;;4850517;29;100802;-88
2021/01/28 01:46:01;;;;;;;15.07;8.02;;;20.90;57.70;;;;;;4855198;29;105020;-86
2021/01/28 01:48:51;;;;;;;15.23;8.50;;;20.90;57.70;;;;;;4853713;29;103008;-85
2021/01/28 01:51:34;;;;;;;14.50;8.55;;;20.90;57.80;;;;;;4834252;29;100941;-84
2021/01/28 01:54:04;;;;;;;12.05;7.93;;;20.90;57.50;;;;;;4821670;29;101004;-87
2021/01/28 01:56:32;;;;;;;13.95;7.72;;;20.90;57.50;;;;;;4820806;29;103236;-87
2021/01/28 01:59:08;;;;;;;13.18;8.43;;;20.90;57.50;;;;;;4840985;29;102251;-86
2021/01/28 02:01:42;;;;;;;14.02;7.70;;;20.90;57.50;;;;;;4853714;29;100657;-87
2021/01/28 02:04:11;;;;;;;13.63;8.70;;;20.90;57.60;;;;;;4839326;29;100349;-88
2021/01/28 02:07:31;;;;;;;13.65;8.43;;;20.90;57.40;;;;;;4835931;29;102869;-86
2021/01/28 02:10:57;;;;;;;13.88;8.43;;;20.90;57.40;;;;;;4838010;29;102248;-86
2021/01/28 02:13:29;;;;;;;14.25;7.95;;;21.00;57.30;;;;;;4852449;29;100812;-86
2021/01/28 02:15:55;;;;;;;14.13;8.45;;;20.90;57.40;;;;;;4832947;29;101276;-84
2021/01/28 02:33:03;;;;;;;23.80;11.05;;;20.60;56.30;;;;;;6170279;22;878400;-83
2021/01/28 02:35:30;;;;;;;33.42;10.75;;;20.20;57.30;;;;;;6144765;22;100793;-82
2021/01/28 02:37:57;;;;;;;43.65;11.88;;;20.10;57.30;;;;;;6144661;22;101104;-82
2021/01/28 02:40:25;;;;;;;34.97;15.23;;;20.00;57.30;;;;;;6145480;22;101549;-84
2021/01/28 02:42:51;;;;;;;39.40;15.70;;;19.90;57.10;;;;;;6143979;22;101060;-81
2021/01/28 02:45:31;;;;;;;41.58;16.55;;;19.90;56.90;;;;;;6146724;22;100570;-81
2021/01/28 02:48:00;;;;;;;;;;;19.90;56.80;;;;;;6173050;22;100603;-86
2021/01/28 02:50:26;;;;;;;41.38;16.75;;;19.90;56.90;;;;;;6172391;22;100874;-84
2021/01/28 02:52:53;;;;;;;42.92;18.38;;;19.80;56.50;;;;;;6143684;22;101252;-83
2021/01/28 02:55:19;;;;;;;39.60;18.45;;;19.80;56.50;;;;;;6147320;22;100766;-83
2021/01/28 02:57:45;;;;;;;46.17;19.50;;;19.70;56.10;;;;;;6174140;22;100793;-83
2021/01/28 03:00:12;;;;;;;44.13;18.73;;;19.70;56.00;;;;;;6144420;22;102057;-82
2021/01/28 03:02:37;;;;;;;37.95;19.02;;;19.60;56.10;;;;;;6145631;22;103900;-83
2021/01/28 03:05:04;;;;;;;40.40;18.00;;;19.60;55.60;;;;;;6144909;22;101313;-83
2021/01/28 03:07:30;;;;;;;36.30;16.50;;;19.50;55.60;;;;;;6167811;22;101195;-82
2021/01/28 03:09:55;;;;;;;40.42;19.13;;;19.50;55.00;;;;;;6171690;22;103620;-84
2021/01/28 03:12:21;;;;;;;39.95;22.88;;;19.50;54.90;;;;;;6142009;22;116198;-82
2021/01/28 03:14:46;;;;;;;51.03;25.55;;;19.40;54.90;;;;;;6154811;22;103085;-83
2021/01/28 03:17:12;;;;;;;47.78;26.38;;;19.40;54.80;;;;;;6197797;22;100932;-82
2021/01/28 03:19:38;;;;;;;43.83;25.33;;;19.40;54.80;;;;;;6192592;22;100686;-83
2021/01/28 03:22:03;;;;;;;44.47;25.90;;;19.40;54.60;;;;;;6143048;22;101614;-83
2021/01/28 03:24:29;;;;;;;42.67;24.38;;;19.30;54.40;;;;;;6143677;22;101401;-82
2021/01/28 03:26:55;;;;;;;37.35;22.50;;;19.30;54.30;;;;;;6143904;22;100673;-84
2021/01/28 03:29:20;;;;;;;32.15;19.02;;;19.30;54.30;;;;;;6169757;22;100903;-83
2021/01/28 03:31:46;;;;;;;37.10;20.08;;;19.20;53.20;;;;;;6166034;22;101095;-84
2021/01/28 03:34:12;;;;;;;34.33;18.88;;;19.10;53.30;;;;;;6163117;22;100772;-83
2021/01/28 03:36:37;;;;;;;39.60;18.23;;;19.10;53.40;;;;;;6137333;22;101147;-83
2021/01/28 03:39:04;;;;;;;27.23;16.52;;;19.10;53.50;;;;;;6137096;22;102853;-84
2021/01/28 03:41:30;;;;;;;28.35;16.00;;;19.10;53.70;;;;;;6139688;22;101890;-82
2021/01/28 03:43:56;;;;;;;31.42;15.38;;;19.10;53.70;;;;;;6140981;22;100814;-83
2021/01/28 03:46:21;;;;;;;28.10;15.13;;;19.10;53.90;;;;;;6190987;22;100957;-82
2021/01/28 03:48:47;;;;;;;29.17;14.43;;;19.10;54.00;;;;;;6190291;22;100974;-81
2021/01/28 03:51:12;;;;;;;26.23;14.13;;;19.10;54.10;;;;;;6165202;22;101131;-82
2021/01/28 03:53:38;;;;;;;25.17;13.45;;;19.10;54.60;;;;;;6139385;22;100945;-83
2021/01/28 03:56:04;;;;;;;24.73;13.60;;;19.00;55.00;;;;;;6165661;22;101150;-83
2021/01/28 03:58:29;;;;;;;25.70;12.95;;;19.10;55.20;;;;;;6138367;22;102667;-82
2021/01/28 04:00:55;;;;;;;23.20;13.05;;;19.10;55.10;;;;;;6138173;22;102650;-82
2021/01/28 04:03:21;;;;;;;22.25;12.20;;;19.00;55.10;;;;;;6138766;22;100902;-82
2021/01/28 04:05:46;;;;;;;23.95;11.88;;;19.00;55.20;;;;;;6164584;22;101185;-83
2021/01/28 04:08:12;;;;;;;23.20;12.35;;;19.00;55.00;;;;;;6163650;22;102733;-83
2021/01/28 04:10:38;;;;;;;20.40;11.52;;;19.00;55.30;;;;;;6189974;22;100771;-83
2021/01/28 04:13:04;;;;;;;17.17;10.95;;;19.00;55.00;;;;;;6163541;22;101286;-83
2021/01/28 04:15:30;;;;;;;22.33;12.75;;;19.00;54.90;;;;;;6165194;22;101144;-82
2021/01/28 04:17:56;;;;;;;20.48;11.88;;;18.90;54.90;;;;;;6163679;22;102803;-85
2021/01/28 04:20:23;;;;;;;22.48;11.40;;;18.90;54.80;;;;;;6139459;22;102078;-84
2021/01/28 04:22:49;;;;;;;23.17;12.45;;;18.90;55.20;;;;;;6165023;22;100664;-83
2021/01/28 04:25:15;;;;;;;19.73;11.63;;;18.80;55.10;;;;;;6162720;22;101084;-82
2021/01/28 04:27:41;;;;;;;19.95;11.48;;;18.80;55.50;;;;;;6161074;22;100802;-83
2021/01/28 04:30:08;;;;;;;20.77;11.30;;;18.80;55.20;;;;;;6134565;22;100882;-83
2021/01/28 04:32:34;;;;;;;19.50;10.65;;;18.80;55.20;;;;;;6161108;22;100965;-82
2021/01/28 04:34:59;;;;;;;17.25;10.43;;;18.70;55.30;;;;;;6188965;22;101019;-81
2021/01/28 04:37:25;;;;;;;20.15;11.35;;;18.70;55.40;;;;;;6185059;22;101008;-83
2021/01/28 04:39:51;;;;;;;21.63;10.15;;;18.70;55.40;;;;;;6185457;22;126025;-84
2021/01/28 04:42:20;;;;;;;17.75;10.15;;;18.70;55.30;;;;;;6160182;22;100943;-85
2021/01/28 04:44:46;;;;;;;19.58;10.70;;;18.70;55.30;;;;;;6162561;22;100704;-84
2021/01/28 04:47:16;;;;;;;17.92;9.70;;;18.70;55.20;;;;;;6137310;22;101291;-82
2021/01/28 04:49:43;;;;;;;;;;;18.70;55.30;;;;;;6189145;22;101482;-83
2021/01/28 04:52:09;;;;;;;22.52;9.82;;;18.70;55.50;;;;;;6190900;22;100854;-82
2021/01/28 04:54:35;;;;;;;14.27;8.82;;;18.70;55.70;;;;;;6164433;22;100800;-85
2021/01/28 04:57:11;;;;;;;19.75;8.85;;;18.70;55.40;;;;;;6162313;22;101543;-81
2021/01/28 04:59:42;;;;;;;17.65;8.55;;;18.60;55.60;;;;;;6162804;22;101321;-82
2021/01/28 05:02:11;;;;;;;15.93;8.43;;;18.60;55.60;;;;;;6162182;22;100816;-81
2021/01/28 05:04:42;;;;;;;13.88;7.85;;;18.60;55.50;;;;;;6163077;22;100287;-82
2021/01/28 05:07:08;;;;;;;17.23;7.88;;;18.60;55.70;;;;;;6161314;22;101860;-82
2021/01/28 05:09:34;;;;;;;13.50;7.25;;;18.60;55.60;;;;;;6137628;22;102971;-81
2021/01/28 05:12:00;;;;;;;13.20;7.90;;;18.60;55.60;;;;;;6137579;22;107221;-83
2021/01/28 05:14:28;;;;;;;14.35;7.10;;;18.60;55.30;;;;;;6163227;22;101115;-82
2021/01/28 05:16:58;;;;;;;12.45;6.80;;;18.60;55.40;;;;;;6164748;22;101323;-82
2021/01/28 05:19:47;;;;;;;12.23;6.78;;;18.60;55.70;;;;;;6138466;22;103206;-83
2021/01/28 05:22:29;;;;;;;13.88;6.78;;;18.50;55.50;;;;;;6165991;22;100980;-80
2021/01/28 05:24:57;;;;;;;10.52;6.90;;;18.50;55.40;;;;;;6126460;23;101038;-82
2021/01/28 05:27:30;;;;;;;16.08;6.97;;;18.50;55.60;;;;;;6100436;23;117193;-82
2021/01/28 05:29:57;;;;;;;12.13;5.80;;;18.40;55.50;;;;;;6126066;23;100910;-80
2021/01/28 05:32:55;;;;;;;8.75;5.85;;;18.50;55.50;;;;;;6100556;23;100663;-83
2021/01/28 05:35:31;;;;;;;10.50;5.60;;;18.40;55.50;;;;;;6102650;23;100200;-82
2021/01/28 05:38:19;;;;;;;13.00;5.97;;;18.40;55.50;;;;;;6127451;23;110216;-83
2021/01/28 05:40:57;;;;;;;12.50;5.38;;;18.50;55.80;;;;;;6124539;22;101198;-83
2021/01/28 05:43:38;;;;;;;8.60;5.47;;;18.40;55.70;;;;;;6079227;23;100848;-83
2021/01/28 05:46:10;;;;;;;7.65;4.95;;;18.40;55.40;;;;;;6102485;23;101175;-82
2021/01/28 05:48:37;;;;;;;8.68;5.28;;;18.40;55.50;;;;;;6125549;23;102193;-83
2021/01/28 05:51:09;;;;;;;8.35;4.97;;;18.30;55.40;;;;;;6124999;23;100906;-83
2021/01/28 05:53:35;;;;;;;6.88;4.68;;;18.30;55.50;;;;;;6127276;22;100841;-82
2021/01/28 05:56:02;;;;;;;6.40;4.18;;;18.30;55.40;;;;;;6099949;23;101143;-82
2021/01/28 05:58:51;;;;;;;5.88;4.28;;;18.30;55.40;;;;;;6100771;23;100916;-81
2021/01/28 06:01:31;;;;;;;6.07;3.72;;;18.30;55.40;;;;;;6104527;23;102588;-79
2021/01/28 06:04:06;;;;;;;5.43;4.10;;;18.30;55.40;;;;;;6125372;23;100853;-80
2021/01/28 06:06:56;;;;;;;7.35;3.90;;;18.30;55.10;;;;;;6128858;22;101141;-80
2021/01/28 06:10:02;;;;;;;5.32;3.15;;;18.30;55.10;;;;;;6102988;23;102839;-80
2021/01/28 06:12:34;;;;;;;5.03;3.20;;;18.30;55.20;;;;;;6125814;23;100827;-81
2021/01/28 06:15:15;;;;;;;3.83;3.13;;;18.20;55.40;;;;;;6125654;22;100509;-81
2021/01/28 06:17:59;;;;;;;4.07;3.20;;;18.20;55.20;;;;;;6124650;23;100946;-81
2021/01/28 06:20:47;;;;;;;4.93;2.60;;;18.20;55.40;;;;;;6100067;23;104172;-80
2021/01/28 06:23:22;;;;;;;4.38;2.80;;;18.20;55.20;;;;;;6145892;22;100651;-81
2021/01/28 06:26:03;;;;;;;4.22;2.92;;;18.20;55.40;;;;;;6130949;22;100938;-81
2021/01/28 06:28:35;;;;;;;4.30;2.55;;;18.20;55.10;;;;;;6132587;22;100969;-80
2021/01/28 06:31:21;;;;;;;4.95;3.40;;;18.10;56.10;;;;;;6153784;22;104037;-81
2021/01/28 06:34:14;;;;;;;4.95;2.80;;;18.10;55.50;;;;;;6153502;22;109426;-81
2021/01/28 06:36:56;;;;;;;4.43;2.40;;;18.20;55.60;;;;;;6154764;22;100814;-81
2021/01/28 06:39:32;;;;;;;4.63;2.30;;;18.10;55.60;;;;;;6155869;22;100921;-81
2021/01/28 06:42:04;;;;;;;9.18;2.95;;;18.20;56.00;;;;;;6103303;22;102825;-82
2021/01/28 06:44:39;;;;;;;4.68;2.63;;;18.20;55.90;;;;;;6153069;22;101316;-81
2021/01/28 06:47:08;;;;;;;5.22;2.50;;;18.30;56.10;;;;;;6102560;22;101012;-80
2021/01/28 06:50:02;;;;;;;6.75;2.45;;;18.30;56.40;;;;;;6152679;22;100847;-79
2021/01/28 06:52:34;;;;;;;5.65;2.40;;;18.30;56.60;;;;;;6127650;22;102291;-80
2021/01/28 06:55:18;;;;;;;4.35;2.80;;;18.30;56.40;;;;;;6125450;22;110112;-81
2021/01/28 06:57:58;;;;;;;4.18;2.13;;;18.30;56.40;;;;;;6154365;22;101172;-79
2021/01/28 07:01:17;;;;;;;5.32;2.47;;;18.30;56.40;;;;;;6153408;22;100730;-80
2021/01/28 07:04:11;;;;;;;5.60;2.35;;;18.30;56.60;;;;;;6030334;23;100868;-81
2021/01/28 07:06:42;;;;;;;5.15;2.10;;;18.30;56.90;;;;;;6030842;23;101146;-81
2021/01/28 07:09:28;;;;;;;3.75;2.22;;;18.30;56.90;;;;;;6115715;22;100956;-82
2021/01/28 07:11:56;;;;;;;6.07;2.55;;;18.30;56.90;;;;;;6153454;22;101004;-78
2021/01/28 07:14:22;;;;;;;7.65;2.40;;;18.30;57.00;;;;;;6151004;22;101028;-80
2021/01/28 07:17:04;;;;;;;6.20;2.30;;;18.30;57.60;;;;;;6152154;22;101974;-81
2021/01/28 07:19:35;;;;;;;4.22;2.67;;;18.30;57.70;;;;;;6152312;22;100810;-81
2021/01/28 07:22:29;;;;;;;6.18;2.15;;;18.30;58.00;;;;;;6141523;22;100951;-81
2021/01/28 07:24:55;;;;;;;6.18;2.38;;;18.40;58.00;;;;;;6103852;22;103282;-79
2021/01/28 07:27:22;;;;;;;3.72;2.08;;;18.30;58.00;;;;;;6153770;22;102968;-80
2021/01/28 07:29:47;;;;;;;5.45;2.25;;;18.30;58.10;;;;;;6152938;22;101076;-79
2021/01/28 07:32:25;;;;;;;3.50;2.40;;;18.30;58.00;;;;;;6155624;22;101619;-80
2021/01/28 07:35:25;;;;;;;4.22;2.15;;;18.30;58.10;;;;;;6155783;22;103399;-79
2021/01/28 07:37:53;;;;;;;4.20;2.00;;;18.30;58.00;;;;;;6159628;22;100826;-79
2021/01/28 07:40:57;;;;;;;3.13;2.40;;;18.40;58.20;;;;;;6159447;22;101009;-81
2021/01/28 07:43:25;;;;;;;4.65;2.50;;;18.30;58.30;;;;;;6160300;22;100922;-80
2021/01/28 07:46:09;;;;;;;4.80;1.92;;;18.40;58.30;;;;;;6159429;22;100432;-80
2021/01/28 07:48:34;;;;;;;3.70;1.80;;;18.40;58.20;;;;;;6133703;22;103111;-82
2021/01/28 07:51:27;;;;;;;2.92;1.92;;;18.30;58.30;;;;;;6177296;22;100049;-79
2021/01/28 07:53:52;;;;;;;3.55;2.20;;;18.40;58.40;;;;;;6165726;22;100875;-80
2021/01/28 07:56:48;;;;;;;3.60;2.30;;;18.40;58.40;;;;;;6154987;22;108391;-81
2021/01/28 07:59:22;;;;;;;3.33;2.03;;;18.30;58.20;;;;;;6130624;22;100841;-81
2021/01/28 08:01:49;;;;;;;3.40;2.03;;;18.40;58.30;;;;;;6156042;22;100889;-80
2021/01/28 08:04:30;;;;;;;2.50;1.85;;;18.40;58.20;;;;;;6155041;22;101078;-80
2021/01/28 08:06:57;;;;;;;3.25;1.70;;;18.50;58.00;;;;;;6129328;22;102188;-80
2021/01/28 08:09:23;;;;;;;2.72;2.13;;;18.60;57.70;;;;;;6103066;22;103488;-80
2021/01/28 08:11:50;;;;;;;5.28;2.10;;;18.70;57.10;;;;;;6155070;22;110536;-79
2021/01/28 08:14:23;;;;;;;4.68;2.10;;;18.90;56.70;;;;;;6106559;22;101274;-81
2021/01/28 08:16:51;;;;;;;17.05;2.35;;;18.80;56.80;;;;;;6129806;22;104767;-80
2021/01/28 08:19:24;;;;;;;6.13;2.20;;;19.00;57.00;;;;;;6130572;22;110781;-81
2021/01/28 08:22:03;;;;;;;3.47;1.67;;;19.10;56.70;;;;;;6133475;22;100927;-80
2021/01/28 08:24:34;;;;;;;4.30;1.60;;;19.10;56.40;;;;;;6157514;22;100903;-81
2021/01/28 08:27:22;;;;;;;4.68;1.77;;;19.20;56.40;;;;;;6108915;22;105877;-80
2021/01/28 08:30:24;;;;;;;4.75;1.65;;;19.30;56.10;;;;;;6158312;22;100870;-80
2021/01/28 08:32:59;;;;;;;7.13;2.00;;;19.50;56.00;;;;;;6083422;22;101128;-80
2021/01/28 08:35:38;;;;;;;5.55;1.70;;;19.50;55.90;;;;;;6133300;22;100894;-80
2021/01/28 08:38:12;;;;;;;2.92;1.77;;;19.50;55.80;;;;;;6109692;22;104031;-81
2021/01/28 08:40:38;;;;;;;4.05;1.85;;;19.60;55.70;;;;;;6158535;22;100800;-81
2021/01/28 08:43:12;;;;;;;3.53;1.63;;;19.50;55.80;;;;;;6158303;22;102124;-81
2021/01/28 08:45:38;;;;;;;2.05;1.60;;;19.50;55.80;;;;;;6156220;22;101058;-81
2021/01/28 08:48:06;;;;;;;3.03;1.55;;;19.60;55.70;;;;;;6155166;22;101576;-81
2021/01/28 08:50:31;;;;;;;3.95;1.98;;;19.50;55.80;;;;;;6157591;22;103160;-81
2021/01/28 08:53:08;;;;;;;4.03;1.77;;;19.60;55.80;;;;;;6153873;22;101395;-82
2021/01/28 08:55:36;;;;;;;5.18;1.80;;;19.50;55.70;;;;;;6130273;22;100854;-81
2021/01/28 08:58:41;;;;;;;2.55;1.50;;;19.50;55.90;;;;;;6129412;22;101802;-81
2021/01/28 09:01:06;;;;;;;5.00;1.50;;;19.50;56.00;;;;;;6104174;22;104736;-83
2021/01/28 09:03:56;;;;;;;2.83;1.40;;;19.50;56.00;;;;;;6129461;22;101472;-82
2021/01/28 09:06:22;;;;;;;1.90;1.40;;;19.50;55.90;;;;;;6133247;22;100893;-82
2021/01/28 09:08:58;;;;;;;2.78;1.58;;;19.50;56.20;;;;;;6155018;22;101903;-83
2021/01/28 09:11:26;;;;;;;4.10;1.73;;;19.50;56.10;;;;;;6153064;22;111172;-82
2021/01/28 09:14:05;;;;;;;2.97;1.85;;;19.50;56.30;;;;;;6104849;22;100888;-81
2021/01/28 09:16:32;;;;;;;2.75;1.52;;;19.50;56.20;;;;;;6153528;22;100978;-81
2021/01/28 09:19:13;;;;;;;7.03;1.70;;;19.50;56.40;;;;;;6131134;22;100850;-80
2021/01/28 09:21:40;;;;;;;2.83;1.50;;;19.50;56.40;;;;;;6157347;22;101414;-80
2021/01/28 09:24:06;;;;;;;1.95;1.35;;;19.50;56.60;;;;;;6157175;22;101024;-81
2021/01/28 09:26:33;;;;;;;7.47;1.52;;;19.50;56.70;;;;;;6154959;22;101232;-80
2021/01/28 09:29:21;;;;;;;2.72;1.70;;;19.40;56.60;;;;;;6152232;22;101291;-80
2021/01/28 09:31:50;;;;;;;2.67;1.38;;;19.40;56.70;;;;;;6152621;22;100889;-81
2021/01/28 09:34:22;;;;;;;1.98;1.35;;;19.40;56.70;;;;;;6108828;22;101314;-80
2021/01/28 09:36:56;;;;;;;5.38;1.45;;;19.40;56.80;;;;;;6159154;22;100969;-82
2021/01/28 09:39:38;;;;;;;4.90;1.67;;;19.40;57.00;;;;;;6155512;22;100945;-81
2021/01/28 09:42:25;;;;;;;3.33;1.60;;;19.40;57.10;;;;;;6161898;22;100819;-81
2021/01/28 09:44:52;;;;;;;6.93;1.70;;;19.40;57.30;;;;;;6152787;22;100888;-81
2021/01/28 09:47:26;;;;;;;3.42;1.23;;;19.40;57.50;;;;;;6127892;22;101753;-80
2021/01/28 09:49:53;;;;;;;8.00;2.10;;;19.40;57.00;;;;;;6129570;22;103087;-79
2021/01/28 09:52:29;;;;;;;4.75;2.13;;;19.30;55.80;;;;;;6126306;22;101288;-79
2021/01/28 09:54:57;;;;;;;2.92;1.63;;;19.20;55.90;;;;;;6150580;22;101055;-79
2021/01/28 09:57:23;;;;;;;3.13;1.80;;;19.20;56.20;;;;;;6128813;22;100956;-80
2021/01/28 09:59:52;;;;;;;5.03;1.85;;;19.30;56.30;;;;;;6126994;22;102073;-79
2021/01/28 10:02:20;;;;;;;4.57;1.58;;;19.30;56.30;;;;;;6150806;22;100909;-78
2021/01/28 10:04:49;;;;;;;18.02;2.05;;;19.30;56.70;;;;;;6104859;22;100927;-86
2021/01/28 10:07:14;;;;;;;5.90;1.70;;;19.40;56.90;;;;;;6130213;22;100821;-84
2021/01/28 10:09:44;;;;;;;7.78;2.22;;;19.50;56.40;;;;;;6152836;22;102438;-83
2021/01/28 10:12:09;;;;;;;8.65;1.65;;;19.60;56.40;;;;;;6149789;22;100794;-82
2021/01/28 10:14:35;;;;;;;3.53;1.73;;;19.70;56.50;;;;;;6128247;22;105280;-85
2021/01/28 10:17:01;;;;;;;5.28;1.88;;;19.70;56.50;;;;;;6153471;22;101372;-84
2021/01/28 10:19:27;;;;;;;6.03;1.67;;;19.70;56.30;;;;;;6153396;22;110834;-82
2021/01/28 10:21:52;;;;;;;2.90;1.42;;;19.80;56.60;;;;;;6152732;22;130796;-83
2021/01/28 10:24:18;;;;;;;3.03;1.40;;;19.90;56.50;;;;;;6150489;22;110216;-83
2021/01/28 10:26:43;;;;;;;6.00;1.80;;;19.80;56.40;;;;;;6103068;22;100862;-84
2021/01/28 10:29:09;;;;;;;2.95;1.30;;;19.80;56.40;;;;;;6154251;22;103243;-85
2021/01/28 10:31:35;;;;;;;2.40;1.30;;;19.90;56.50;;;;;;6155196;22;118405;-86
2021/01/28 10:34:00;;;;;;;2.95;1.05;;;19.90;56.40;;;;;;6129574;22;112064;-85
2021/01/28 10:36:29;;;;;;;6.78;1.40;;;20.00;56.40;;;;;;6162947;22;100718;-86
2021/01/28 10:39:01;;;;;;;2.20;1.45;;;19.90;56.20;;;;;;6147855;22;102644;-84
2021/01/28 10:41:33;;;;;;;2.50;1.30;;;19.90;56.20;;;;;;6178842;22;100137;-84
2021/01/28 10:44:02;;;;;;;2.30;1.30;;;20.00;56.20;;;;;;6137403;22;106182;-84
2021/01/28 10:46:28;;;;;;;2.00;1.42;;;20.00;56.10;;;;;;6160292;22;100718;-82
2021/01/28 10:48:53;;;;;;;3.22;1.38;;;20.10;56.20;;;;;;6131176;22;104395;-84
2021/01/28 10:51:19;;;;;;;4.82;1.27;;;20.00;56.00;;;;;;6156702;22;130039;-85
2021/01/28 10:53:53;;;;;;;3.10;1.40;;;20.00;56.00;;;;;;6159956;22;107836;-85
2021/01/28 10:56:19;;;;;;;2.60;1.35;;;20.00;56.00;;;;;;6159672;22;101505;-84
2021/01/28 10:58:45;;;;;;;2.30;1.15;;;20.10;56.10;;;;;;6134933;22;102008;-82
2021/01/28 11:01:11;;;;;;;2.28;1.17;;;20.10;56.20;;;;;;6159524;22;101246;-82
2021/01/28 11:03:37;;;;;;;1.75;1.30;;;20.10;56.30;;;;;;6130088;22;101523;-83
2021/01/28 11:06:03;;;;;;;4.65;1.40;;;20.10;56.40;;;;;;6156902;22;101408;-83
2021/01/28 11:08:30;;;;;;;3.38;1.50;;;20.10;56.50;;;;;;6130469;22;106096;-85
2021/01/28 11:11:12;;;;;;;4.30;1.15;;;20.00;56.50;;;;;;6155907;22;104382;-84
2021/01/28 11:13:37;;;;;;;2.45;1.40;;;20.00;56.70;;;;;;6156074;22;100978;-83
2021/01/28 11:16:03;;;;;;;4.18;1.60;;;20.00;56.60;;;;;;6157864;22;100964;-84
2021/01/28 11:18:30;;;;;;;6.30;1.17;;;20.00;56.40;;;;;;6157534;22;102701;-84
2021/01/28 11:20:58;;;;;;;2.70;1.27;;;20.10;56.30;;;;;;6158144;22;130068;-85
2021/01/28 11:23:24;;;;;;;2.47;1.20;;;20.00;56.20;;;;;;6104997;22;101118;-85
2021/01/28 11:25:49;;;;;;;4.47;1.23;;;20.00;56.10;;;;;;6165480;22;108408;-84
2021/01/28 11:28:15;;;;;;;2.00;1.30;;;20.00;56.10;;;;;;6157048;22;102952;-82
2021/01/28 11:30:47;;;;;;;1.60;0.95;;;20.00;56.20;;;;;;6157505;22;100945;-83
2021/01/28 11:33:15;;;;;;;3.78;1.10;;;20.10;56.20;;;;;;6156747;22;101128;-86
2021/01/28 11:35:42;;;;;;;6.35;1.17;;;20.00;56.50;;;;;;6137316;22;100184;-85
2021/01/28 11:38:11;;;;;;;3.15;1.15;;;20.10;56.60;;;;;;6117003;22;102222;-83
2021/01/28 11:40:43;;;;;;;1.42;1.10;;;20.20;56.50;;;;;;6141855;22;100784;-82
2021/01/28 11:43:09;;;;;;;3.10;1.30;;;20.20;56.60;;;;;;6137010;22;101024;-79
2021/01/28 11:49:50;;;;;;;2.08;1.10;;;20.20;56.70;;;;;;6146998;22;102732;-83
2021/01/28 11:53:08;;;;;;;2.83;1.30;;;20.30;56.80;;;;;;6166682;22;101333;-85
2021/01/28 11:55:28;;;;;;;1.35;1.10;;;20.30;56.80;;;;;;6167196;22;100142;-83
2021/01/28 11:58:41;;;;;;;3.17;1.08;;;20.30;56.70;;;;;;6154360;22;100687;-85
2021/01/28 12:01:45;;;;;;;3.75;1.00;;;20.40;56.60;;;;;;6180035;22;101777;-83
2021/01/28 12:04:36;;;;;;;2.67;1.15;;;20.40;56.70;;;;;;6178713;22;102066;-85
2021/01/28 12:07:02;;;;;;;2.63;0.90;;;20.30;56.80;;;;;;6155658;22;101017;-82
2021/01/28 12:09:28;;;;;;;1.85;1.05;;;20.40;56.90;;;;;;6148201;22;100589;-81
2021/01/28 12:13:17;;;;;;;1.75;1.00;;;20.40;57.00;;;;;;6159105;22;101648;-83
2021/01/28 12:15:45;;;;;;;4.55;1.05;;;20.40;56.90;;;;;;6156373;22;102072;-85
2021/01/28 12:18:18;;;;;;;6.25;0.98;;;20.50;56.80;;;;;;6157337;22;100791;-86
2021/01/28 12:20:47;;;;;;;7.72;1.02;;;20.50;56.90;;;;;;6158669;22;100422;-85
2021/01/28 12:28:36;;;;;;;5.35;1.40;;;20.40;57.20;;;;;;6179462;22;100834;-85
2021/01/28 12:31:14;;;;;;;2.17;1.10;;;20.50;57.20;;;;;;6129827;22;100199;-86
2021/01/28 12:33:40;;;;;;;2.53;1.00;;;20.50;57.40;;;;;;6126773;22;101855;-86
2021/01/28 12:39:35;;;;;;;2.05;1.00;;;20.50;57.40;;;;;;6137673;22;100315;-83
2021/01/28 12:42:58;;;;;;;3.15;1.10;;;20.50;57.40;;;;;;6099556;23;101338;-83
2021/01/28 12:49:25;;;;;;;2.80;1.00;;;20.50;57.40;;;;;;6132531;23;100773;-84
2021/01/28 12:52:11;;;;;;;2.60;0.93;;;20.50;57.50;;;;;;6103991;23;100069;-85
2021/01/28 12:55:37;;;;;;;1.77;0.98;;;20.50;57.60;;;;;;6129243;23;100098;-87
2021/01/28 13:02:34;;;;;;;1.33;0.80;;;20.50;57.60;;;;;;6089289;23;100295;-87
2021/01/28 13:07:36;;;;;;;1.77;0.93;;;20.60;57.50;;;;;;6198109;22;108430;-80
2021/01/28 13:13:09;;;;;;;1.52;0.95;;;20.60;57.50;;;;;;6192756;22;100428;-85
2021/01/28 13:21:36;;;;;;;1.83;0.90;;;20.60;57.60;;;;;;6206768;22;103194;-82
2021/01/28 13:27:17;;;;;;;1.77;1.10;;;20.60;57.90;;;;;;6127982;22;100966;-86
2021/01/28 13:45:25;;;;;;;3.03;1.48;;;20.60;57.00;;;;;;6181906;22;102789;-84
2021/01/28 13:48:11;;;;;;;3.90;1.40;;;20.60;56.80;;;;;;6184619;22;100047;-82
2021/01/28 13:51:20;;;;;;;4.13;1.45;;;20.60;56.80;;;;;;6160775;22;100301;-85
2021/01/28 13:54:08;;;;;;;4.60;1.50;;;20.70;56.60;;;;;;6210804;22;102112;-83
2021/01/28 13:59:50;;;;;;;3.05;1.80;;;20.70;56.50;;;;;;6191746;22;100121;-83
2021/01/28 14:06:30;;;;;;;4.50;1.45;;;20.70;56.40;;;;;;6192423;22;100750;-87
2021/01/28 14:09:03;;;;;;;4.28;1.65;;;20.60;56.20;;;;;;6182220;22;102276;-84
2021/01/28 14:11:29;;;;;;;4.05;1.42;;;20.70;56.10;;;;;;6158410;22;100833;-86
2021/01/28 14:13:57;;;;;;;4.80;1.60;;;20.70;56.10;;;;;;6159209;22;100405;-85
2021/01/28 14:17:26;;;;;;;2.85;1.38;;;20.70;56.00;;;;;;6128742;22;103172;-85
2021/01/28 14:20:49;;;;;;;;;;;;;;;;;;;;;
2021/01/28 14:23:59;;;;;;;3.90;1.40;;;20.70;55.80;;;;;;6099691;22;113041;-86
2021/01/28 14:30:08;;;;;;;2.85;1.50;;;20.70;55.70;;;;;;6199295;22;102086;-86
2021/01/28 14:40:16;;;;;;;2.35;1.27;;;20.70;55.70;;;;;;6240825;22;100076;-86
2021/01/28 14:43:02;;;;;;;2.80;1.23;;;20.70;55.70;;;;;;6080931;23;101160;-84
2021/01/28 14:46:51;;;;;;;5.13;1.95;;;20.70;55.60;;;;;;6222314;22;100140;-82
2021/01/28 14:49:17;;;;;;;10.88;1.73;;;20.60;55.80;;;;;;6086561;23;100870;-81
2021/01/28 14:51:42;;;;;;;7.70;1.88;;;20.50;55.40;;;;;;6085395;23;100172;-83